createdAt,value
2023-03-21T00:01:25.582Z,99470.13
2023-03-21T00:05:30.057Z,99469.63
2023-03-21T00:09:32.774Z,99465.25
2023-03-21T00:13:38.485Z,99457.03
2023-03-21T00:17:41.558Z,99451.97
2023-03-21T00:21:59.607Z,99453.16
2023-03-21T00:26:10.165Z,99449.09
2023-03-21T00:30:14.004Z,99447.88
2023-03-21T00:34:22.490Z,99450.69
2023-03-21T00:38:36.265Z,99443.38
2023-03-21T00:42:39.104Z,99444.25
2023-03-21T00:46:51.681Z,99436.81
2023-03-21T00:51:00.554Z,99429.72
2023-03-21T00:55:04.940Z,99430.13
2023-03-21T00:59:07.614Z,99425.31
2023-03-21T01:03:23.713Z,99421.34
2023-03-21T01:07:27.692Z,99409.56
2023-03-21T01:11:32.051Z,99413.25
2023-03-21T01:15:34.941Z,99421.91
2023-03-21T01:19:51.208Z,99419.13
2023-03-21T01:23:54.630Z,99415.41
2023-03-21T01:27:58.636Z,99407.00
2023-03-21T01:32:01.445Z,99399.56
2023-03-21T01:36:12.804Z,99383.06
2023-03-21T01:40:18.182Z,99386.78
2023-03-21T01:44:22.475Z,99381.41
2023-03-21T01:48:25.521Z,99390.50
2023-03-21T01:52:37.135Z,99380.06
2023-03-21T01:56:42.063Z,99377.53
2023-03-21T02:00:46.462Z,99370.28
2023-03-21T02:04:51.143Z,99378.03
2023-03-21T02:08:54.435Z,99367.28
2023-03-21T02:12:58.494Z,99360.63
2023-03-21T02:17:04.711Z,99353.19
2023-03-21T02:21:48.904Z,99355.31
2023-03-21T02:26:17.554Z,99351.78
2023-03-21T02:30:51.619Z,99338.31
2023-03-21T02:35:29.289Z,99336.91
2023-03-21T02:39:41.575Z,99344.28
2023-03-21T02:43:46.511Z,99333.31
2023-03-21T02:47:52.643Z,99330.50
2023-03-21T02:52:00.229Z,99334.59
2023-03-21T02:56:10.787Z,99316.97
2023-03-21T03:00:17.838Z,99307.63
2023-03-21T03:04:22.068Z,99313.59
2023-03-21T03:08:38.482Z,99314.41
2023-03-21T03:12:51.591Z,99312.50
2023-03-21T03:17:03.952Z,99304.22
2023-03-21T03:21:12.193Z,99311.03
2023-03-21T03:25:24.958Z,99318.03
2023-03-21T03:29:35.723Z,99305.97
2023-03-21T03:33:41.327Z,99313.84
2023-03-21T03:37:47.528Z,99311.72
2023-03-21T03:42:12.198Z,99308.13
2023-03-21T03:46:20.861Z,99315.47
2023-03-21T03:50:28.005Z,99301.34
2023-03-21T03:54:33.341Z,99291.22
2023-03-21T03:58:45.190Z,99297.66
2023-03-21T04:02:49.967Z,99310.53
2023-03-21T04:06:53.714Z,99301.03
2023-03-21T04:10:56.596Z,99296.00
2023-03-21T04:15:08.177Z,99304.66
2023-03-21T04:19:15.888Z,99299.44
2023-03-21T04:23:20.201Z,99304.50
2023-03-21T04:27:22.893Z,99295.94
2023-03-21T04:31:27.273Z,99301.47
2023-03-21T04:35:31.577Z,99300.06
2023-03-21T04:39:34.106Z,99305.41
2023-03-21T04:43:37.340Z,99297.28
2023-03-21T04:47:40.778Z,99297.28
2023-03-21T04:51:45.578Z,99301.41
2023-03-21T04:55:51.876Z,99295.63
2023-03-21T04:59:56.136Z,99300.97
2023-03-21T05:03:59.418Z,99307.09
2023-03-21T05:08:03.514Z,99292.22
2023-03-21T05:12:06.852Z,99309.19
2023-03-21T05:16:10.389Z,99310.38
2023-03-21T05:20:17.356Z,99305.47
2023-03-21T05:24:23.073Z,99312.38
2023-03-21T05:28:31.840Z,99313.19
2023-03-21T05:32:34.566Z,99314.25
2023-03-21T05:36:37.283Z,99303.63
2023-03-21T05:40:41.312Z,99304.09
2023-03-21T05:44:44.244Z,99306.94
2023-03-21T05:48:46.920Z,99276.00
2023-03-21T05:52:49.713Z,99306.69
2023-03-21T05:56:53.758Z,99303.47
2023-03-21T06:00:56.434Z,99285.78
2023-03-21T06:04:59.161Z,99301.03
2023-03-21T06:09:02.189Z,99302.91
2023-03-21T06:13:06.497Z,99296.69
2023-03-21T06:17:09.185Z,99290.53
2023-03-21T06:21:11.849Z,99301.72
2023-03-21T06:25:14.600Z,99274.22
2023-03-21T06:29:18.915Z,99304.69
2023-03-21T06:33:21.738Z,99295.72
2023-03-21T06:37:25.816Z,99309.34
2023-03-21T06:41:28.281Z,99301.84
2023-03-21T06:45:32.301Z,99303.28
2023-03-21T06:49:34.918Z,99299.31
2023-03-21T06:53:37.549Z,99296.91
2023-03-21T06:57:40.259Z,99299.78
2023-03-21T07:01:44.293Z,99298.59
2023-03-21T07:05:46.758Z,99292.53
2023-03-21T07:09:49.636Z,99294.22
2023-03-21T07:13:53.617Z,99297.66
2023-03-21T07:17:57.546Z,99295.59
2023-03-21T07:22:01.459Z,99293.09
2023-03-21T07:26:04.189Z,99306.88
2023-03-21T07:30:08.282Z,99303.13
2023-03-21T07:34:12.330Z,99299.16
2023-03-21T07:38:16.874Z,99310.66
2023-03-21T07:42:20.356Z,99310.00
2023-03-21T07:46:23.085Z,99312.47
2023-03-21T07:50:27.210Z,99318.19
2023-03-21T07:54:30.347Z,99325.91
2023-03-21T07:58:34.287Z,99332.94
2023-03-21T08:02:37.124Z,99326.66
2023-03-21T08:06:41.263Z,99335.28
2023-03-21T08:10:44.584Z,99320.91
2023-03-21T08:14:47.298Z,99320.50
2023-03-21T08:18:50.363Z,99316.81
2023-03-21T08:22:54.393Z,99316.72
2023-03-21T08:26:58.373Z,99316.50
2023-03-21T08:31:01.449Z,99310.47
2023-03-21T08:35:04.835Z,99313.09
2023-03-21T08:39:08.831Z,99307.38
2023-03-21T08:43:13.686Z,99306.66
2023-03-21T08:47:17.411Z,99304.44
2023-03-21T08:51:20.628Z,99304.69
2023-03-21T08:55:24.704Z,99302.97
2023-03-21T08:59:27.650Z,99301.13
2023-03-21T09:03:30.374Z,99306.31
2023-03-21T09:07:34.717Z,99301.66
2023-03-21T09:11:38.738Z,99307.00
2023-03-21T09:15:41.520Z,99302.56
2023-03-21T09:19:44.536Z,99305.66
2023-03-21T09:23:48.642Z,99301.56
2023-03-21T09:27:53.735Z,99303.38
2023-03-21T09:31:57.777Z,99297.38
2023-03-21T09:36:01.262Z,99297.84
2023-03-21T09:40:08.749Z,99300.88
2023-03-21T09:44:22.859Z,99286.59
2023-03-21T09:48:37.615Z,99274.53
2023-03-21T09:52:45.635Z,99300.63
2023-03-21T09:56:48.504Z,99300.22
2023-03-21T10:00:56.696Z,99289.66
2023-03-21T10:05:00.278Z,99287.59
2023-03-21T10:09:06.633Z,99294.38
2023-03-21T10:13:15.654Z,99291.75
2023-03-21T10:17:26.321Z,99292.22
2023-03-21T10:22:00.279Z,99293.34
2023-03-21T10:25:55.119Z,99296.72
2023-03-21T10:30:01.063Z,99283.81
2023-03-21T10:34:16.539Z,99277.50
2023-03-21T10:38:21.138Z,99289.25
2023-03-21T10:42:25.686Z,99299.00
2023-03-21T10:46:28.961Z,99289.66
2023-03-21T10:50:33.267Z,99289.47
2023-03-21T10:54:36.732Z,99283.25
2023-03-21T10:58:43.284Z,99282.94
2023-03-21T11:02:49.234Z,99286.69
2023-03-21T11:06:55.185Z,99286.81
2023-03-21T11:11:02.010Z,99283.69
2023-03-21T11:15:27.206Z,99275.19
2023-03-21T11:19:32.906Z,99279.50
2023-03-21T11:23:40.957Z,99269.97
2023-03-21T11:27:49.356Z,99268.41
2023-03-21T11:31:52.247Z,99269.75
2023-03-21T11:36:03.182Z,99262.59
2023-03-21T11:40:21.136Z,99249.31
2023-03-21T11:44:32.532Z,99241.59
2023-03-21T11:48:40.833Z,99220.88
2023-03-21T11:52:51.270Z,99215.06
2023-03-21T11:56:58.107Z,99203.00
2023-03-21T12:01:09.244Z,99209.50
2023-03-21T12:05:20.096Z,99213.78
2023-03-21T12:09:30.557Z,99214.09
2023-03-21T12:13:44.989Z,99205.84
2023-03-21T12:17:54.400Z,99199.09
2023-03-21T12:22:05.660Z,99187.88
2023-03-21T12:26:15.517Z,99179.16
2023-03-21T12:30:30.169Z,99182.09
2023-03-21T12:34:52.798Z,99171.69
2023-03-21T12:39:03.277Z,99142.66
2023-03-21T12:43:26.200Z,99120.88
2023-03-21T12:47:32.672Z,99078.50
2023-03-21T12:51:39.098Z,99094.69
2023-03-21T12:55:42.253Z,99089.31
2023-03-21T12:59:49.504Z,99085.91
2023-03-21T13:04:06.881Z,99095.88
2023-03-21T13:08:16.572Z,99087.38
2023-03-21T13:12:29.781Z,99110.19
2023-03-21T13:16:34.333Z,99113.91
2023-03-21T13:20:44.712Z,99117.66
2023-03-21T13:24:49.719Z,99113.16
2023-03-21T13:28:53.306Z,99135.97
2023-03-21T13:33:05.644Z,99124.28
2023-03-21T13:37:16.549Z,99087.13
2023-03-21T13:41:20.675Z,99059.75
2023-03-21T13:45:29.878Z,99085.25
2023-03-21T13:49:35.705Z,99110.19
2023-03-21T13:53:40.377Z,99106.81
2023-03-21T13:57:43.165Z,99101.25
2023-03-21T14:02:00.101Z,99108.44
2023-03-21T14:06:02.993Z,99116.66
2023-03-21T14:10:15.006Z,99121.19
2023-03-21T14:14:18.264Z,99120.91
2023-03-21T14:18:41.206Z,99110.81
2023-03-21T14:22:48.064Z,99066.47
2023-03-21T14:26:54.040Z,99096.22
2023-03-21T14:30:57.918Z,99082.41
2023-03-21T14:35:02.325Z,99068.63
2023-03-21T14:39:07.771Z,99061.72
2023-03-21T14:43:13.429Z,99069.41
2023-03-21T14:47:19.873Z,99043.13
2023-03-21T14:51:30.803Z,99056.38
2023-03-21T14:55:33.558Z,99056.13
2023-03-21T14:59:38.856Z,99052.66
2023-03-21T15:03:41.672Z,99034.38
2023-03-21T15:07:44.348Z,99025.88
2023-03-21T15:11:51.545Z,99023.22
2023-03-21T15:15:56.034Z,99018.97
2023-03-21T15:19:58.806Z,99010.72
2023-03-21T15:24:04.904Z,99010.72
2023-03-21T15:28:07.889Z,99013.91
2023-03-21T15:32:17.498Z,99008.34
2023-03-21T15:36:20.168Z,99007.81
2023-03-21T15:40:26.571Z,99007.03
2023-03-21T15:44:29.831Z,99017.66
2023-03-21T15:48:35.429Z,99000.94
2023-03-21T15:52:38.673Z,99015.28
2023-03-21T15:56:45.996Z,99007.31
2023-03-21T16:00:54.399Z,99023.47
2023-03-21T16:05:01.147Z,99003.56
2023-03-21T16:09:10.362Z,98992.69
2023-03-21T16:13:14.314Z,98986.59
2023-03-21T16:17:29.688Z,98983.94
2023-03-21T16:21:34.701Z,98980.75
2023-03-21T16:25:37.440Z,98984.72
2023-03-21T16:29:41.165Z,98991.88
2023-03-21T16:33:44.312Z,98981.00
2023-03-21T16:37:48.908Z,98974.38
2023-03-21T16:41:51.629Z,98978.38
2023-03-21T16:45:54.433Z,98978.91
2023-03-21T16:49:57.305Z,98975.69
2023-03-21T16:54:01.737Z,98991.59
2023-03-21T16:58:05.081Z,98991.03
2023-03-21T17:02:13.534Z,98956.16
2023-03-21T17:06:18.351Z,98997.59
2023-03-21T17:10:24.942Z,98995.94
2023-03-21T17:14:27.656Z,98999.41
2023-03-21T17:18:30.380Z,99004.66
2023-03-21T17:22:33.504Z,98998.31
2023-03-21T17:26:37.680Z,99001.97
2023-03-21T17:30:40.955Z,98994.81
2023-03-21T17:34:43.772Z,98988.97
2023-03-21T17:38:46.843Z,98986.50
2023-03-21T17:42:51.559Z,98997.09
2023-03-21T17:46:54.246Z,98992.44
2023-03-21T17:50:57.098Z,99007.16
2023-03-21T17:55:00.116Z,99020.13
2023-03-21T17:59:07.496Z,99024.47
2023-03-21T18:03:10.192Z,99012.75
2023-03-21T18:07:19.586Z,99029.63
2023-03-21T18:11:27.287Z,99021.84
2023-03-21T18:15:31.343Z,99034.19
2023-03-21T18:19:34.560Z,99030.25
2023-03-21T18:23:37.774Z,99025.53
2023-03-21T18:28:02.084Z,99029.78
2023-03-21T18:32:07.322Z,99035.88
2023-03-21T18:36:14.030Z,99041.91
2023-03-21T18:40:22.022Z,99033.22
2023-03-21T18:44:25.691Z,99031.84
2023-03-21T18:48:33.026Z,99019.06
2023-03-21T18:52:37.004Z,99054.91
2023-03-21T19:01:05.064Z,99063.06
2023-03-21T19:05:10.130Z,99056.22
2023-03-21T19:09:14.384Z,99063.53
2023-03-21T19:13:17.315Z,99058.06
2023-03-21T19:18:20.677Z,99062.53
2023-03-21T19:21:44.432Z,99077.81
2023-03-21T19:25:47.892Z,99069.69
2023-03-21T19:30:06.824Z,99073.63
2023-03-21T19:34:13.799Z,99073.81
2023-03-21T19:38:17.897Z,99063.13
2023-03-21T19:42:20.964Z,99055.19
2023-03-21T19:46:25.322Z,99058.44
2023-03-21T19:51:20.531Z,99058.44
2023-03-21T19:54:54.008Z,99051.66
2023-03-21T19:58:57.030Z,99055.63
2023-03-21T20:02:59.820Z,99052.81
2023-03-21T20:07:02.521Z,99054.41
2023-03-21T20:11:06.927Z,99053.38
2023-03-21T20:15:17.588Z,99041.59
2023-03-21T20:19:22.921Z,99041.97
2023-03-21T20:23:25.664Z,99034.06
2023-03-21T20:27:30.439Z,99039.88
2023-03-21T20:31:33.573Z,99040.94
2023-03-21T20:36:24.077Z,99043.22
2023-03-21T20:39:59.014Z,99045.41
2023-03-21T20:48:26.793Z,99044.94
2023-03-21T20:56:53.195Z,99045.03
2023-03-21T21:00:59.297Z,99052.34
2023-03-21T21:05:24.599Z,99059.34
2023-03-21T21:09:25.189Z,99053.84
2023-03-21T21:13:27.926Z,99052.31
2023-03-21T21:18:01.929Z,99050.50
2023-03-21T21:21:56.512Z,99056.84
2023-03-21T21:26:01.076Z,99052.69
2023-03-21T21:30:04.087Z,99052.59
2023-03-21T21:34:08.198Z,99049.84
2023-03-21T21:38:11.611Z,99045.38
2023-03-21T21:42:14.288Z,99046.66
2023-03-21T21:46:17.492Z,99039.22
2023-03-21T21:50:22.643Z,99032.25
2023-03-21T21:54:26.182Z,99033.38
2023-03-21T21:58:29.293Z,99037.47
2023-03-21T22:02:32.049Z,99029.59
2023-03-21T22:06:36.294Z,99023.16
2023-03-21T22:10:39.256Z,99020.34
2023-03-21T22:14:42.212Z,99024.69
2023-03-21T22:18:44.945Z,99025.94
2023-03-21T22:22:49.292Z,99027.53
2023-03-21T22:26:57.761Z,98988.00
2023-03-21T22:31:00.527Z,99029.72
2023-03-21T22:35:03.373Z,99031.19
2023-03-21T22:39:07.420Z,99017.09
2023-03-21T22:43:10.192Z,99026.16
2023-03-21T22:47:13.275Z,99033.13
2023-03-21T22:51:15.954Z,99026.84
2023-03-21T22:55:20.100Z,99025.81
2023-03-21T22:59:22.819Z,99025.81
2023-03-21T23:03:25.880Z,99019.41
2023-03-21T23:07:28.537Z,99031.22
2023-03-21T23:11:32.631Z,99023.53
2023-03-21T23:15:35.637Z,99019.41
2023-03-21T23:19:41.071Z,99012.06
2023-03-21T23:23:50.086Z,99001.31
2023-03-21T23:27:54.215Z,99012.72
2023-03-21T23:31:56.953Z,99007.44
2023-03-21T23:35:59.710Z,99002.44
2023-03-21T23:40:02.558Z,99009.66
2023-03-21T23:44:06.973Z,99005.97
2023-03-21T23:48:09.749Z,98993.91
2023-03-21T23:52:12.955Z,99002.13
2023-03-21T23:56:17.422Z,98991.81
